Time;durP1;ratioP1;P1;durP2;ratioP2;P2;SDS_P1;SDS_P2;PMS_P1;PMS_P2;Temp;Humidity;BMP_temperature;BMP_pressure;BME280_temperature;BME280_humidity;BME280_pressure;Samples;Min_cycle;Max_cycle;Signal;HPM_P1;HPM_P2
2024/01/20 00:01:25;;;;;;;5.47;4.90;;;14.50;49.40;15.50;101880.00;;;;5045748;28;20276;-46
2024/01/20 00:03:51;;;;;;;5.17;4.67;;;14.50;49.50;15.50;101870.00;;;;5046485;28;20190;-46
2024/01/20 00:06:17;;;;;;;5.10;4.60;;;14.40;49.50;15.50;101848.00;;;;5041797;28;20196;-46
2024/01/20 00:08:43;;;;;;;5.13;4.63;;;14.40;49.50;15.50;101875.00;;;;5043203;28;20174;-47
2024/01/20 00:11:09;;;;;;;6.13;4.90;;;14.40;49.40;15.40;101869.00;;;;5043744;28;20725;-46
2024/01/20 00:13:34;;;;;;;5.20;4.70;;;14.30;49.40;15.40;101857.00;;;;5042628;28;20167;-47
2024/01/20 00:16:00;;;;;;;4.90;4.50;;;14.30;49.20;15.40;101871.00;;;;5049160;28;20588;-47
2024/01/20 00:18:26;;;;;;;5.73;4.40;;;14.30;49.30;15.40;101863.00;;;;5041045;28;20220;-46
2024/01/20 00:20:51;;;;;;;5.33;4.83;;;14.20;49.30;15.30;101865.00;;;;5043364;28;20240;-46
2024/01/20 00:23:17;;;;;;;7.07;5.00;;;14.10;49.30;15.30;101870.00;;;;5042003;28;20541;-46
2024/01/20 00:25:43;;;;;;;4.93;4.53;;;14.10;49.20;15.30;101864.00;;;;5041800;28;20222;-47
2024/01/20 00:28:08;;;;;;;5.90;4.90;;;14.10;49.30;15.30;101870.00;;;;5042110;28;20170;-47
2024/01/20 00:30:34;;;;;;;5.20;4.70;;;14.10;49.10;15.20;101870.00;;;;5040942;28;20175;-47
2024/01/20 00:33:00;;;;;;;5.37;4.87;;;14.10;49.00;15.20;101880.00;;;;5043228;28;20174;-46
2024/01/20 00:35:26;;;;;;;5.10;4.60;;;14.00;49.00;15.20;101864.00;;;;5038783;28;20186;-46
2024/01/20 00:37:53;;;;;;;5.20;4.70;;;14.00;49.70;15.20;101871.00;;;;5043127;28;20228;-46
2024/01/20 00:40:19;;;;;;;5.07;4.57;;;14.00;49.00;15.10;101871.00;;;;5041663;28;20174;-47
2024/01/20 00:42:44;;;;;;;5.10;4.60;;;14.00;48.80;15.10;101878.00;;;;5040122;28;20697;-47
2024/01/20 00:45:10;;;;;;;5.30;4.57;;;14.00;48.80;15.10;101877.00;;;;5039375;28;20664;-47
2024/01/20 00:47:36;;;;;;;5.10;4.60;;;14.00;48.90;15.10;101864.00;;;;5040976;28;20175;-46
2024/01/20 00:50:04;;;;;;;4.97;4.50;;;13.90;48.50;15.10;101874.00;;;;5042971;28;20173;-45
2024/01/20 00:52:29;;;;;;;4.90;4.50;;;13.90;48.40;15.00;101860.00;;;;5040458;28;20598;-46
2024/01/20 00:54:55;;;;;;;5.00;4.50;;;13.90;48.60;15.00;101864.00;;;;5042873;28;20229;-46
2024/01/20 00:57:21;;;;;;;4.80;4.40;;;13.90;48.50;15.00;101870.00;;;;5040974;28;20182;-46
2024/01/20 00:59:47;;;;;;;6.20;4.77;;;13.80;48.30;15.00;101884.00;;;;5042405;28;20802;-46
2024/01/20 01:02:15;;;;;;;5.23;4.73;;;13.80;48.30;14.90;101880.00;;;;5039483;28;20182;-46
2024/01/20 01:04:41;;;;;;;5.30;4.60;;;13.80;48.40;14.90;101883.00;;;;5039973;28;20199;-46
2024/01/20 01:07:07;;;;;;;6.17;4.60;;;13.80;48.30;14.90;101878.00;;;;5041486;28;20496;-46
2024/01/20 01:09:33;;;;;;;5.23;4.30;;;13.80;49.10;14.90;101891.00;;;;5039263;28;20182;-46
2024/01/20 01:11:58;;;;;;;8.03;4.73;;;13.80;49.20;14.90;101881.00;;;;5041524;28;20178;-47
2024/01/20 01:14:24;;;;;;;5.83;4.20;;;13.90;49.00;14.90;101817.00;;;;5038923;28;20236;-47
2024/01/20 01:16:50;;;;;;;6.73;4.43;;;13.80;48.90;14.80;101901.00;;;;5040855;28;20679;-46
2024/01/20 01:19:15;;;;;;;4.97;4.50;;;13.80;48.80;14.80;101896.00;;;;5040199;28;20776;-46
2024/01/20 01:21:41;;;;;;;4.63;4.23;;;13.80;48.80;14.80;101881.00;;;;5039975;28;20206;-46
2024/01/20 01:24:07;;;;;;;4.90;4.50;;;13.70;48.90;14.80;101885.00;;;;5041190;28;20252;-46
2024/01/20 01:26:33;;;;;;;5.53;4.20;;;13.70;48.80;14.80;101890.00;;;;5037991;28;20248;-46
2024/01/20 01:28:58;;;;;;;4.87;4.30;;;13.70;48.80;14.70;101887.00;;;;5041571;28;20193;-47
2024/01/20 01:31:24;;;;;;;5.40;4.70;;;13.70;48.90;14.70;101896.00;;;;5038938;28;20186;-47
2024/01/20 01:33:50;;;;;;;5.40;4.60;;;13.70;48.70;14.70;101902.00;;;;5036746;28;20185;-46
2024/01/20 01:36:15;;;;;;;5.00;4.50;;;13.60;48.50;14.70;101910.00;;;;5039888;28;20695;-46
2024/01/20 01:38:41;;;;;;;4.87;4.43;;;13.60;48.50;14.70;101919.00;;;;5038592;28;20187;-46
2024/01/20 01:41:07;;;;;;;5.07;4.53;;;13.60;48.50;14.60;101906.00;;;;5041218;28;20198;-46
2024/01/20 01:43:33;;;;;;;4.90;4.40;;;13.50;48.40;14.60;101907.00;;;;5033494;28;20230;-46
2024/01/20 01:45:58;;;;;;;4.83;4.37;;;13.50;48.50;14.60;101909.00;;;;5040852;28;20729;-47
2024/01/20 01:48:24;;;;;;;6.13;4.40;;;13.50;48.40;14.60;101911.00;;;;5038979;28;20213;-53
2024/01/20 01:50:50;;;;;;;5.23;4.63;;;13.50;48.40;14.60;101909.00;;;;5045238;28;20610;-46
2024/01/20 01:53:15;;;;;;;4.70;4.30;;;13.40;48.30;14.50;101922.00;;;;5027092;28;20194;-46
2024/01/20 01:55:43;;;;;;;4.77;4.37;;;13.40;48.30;14.50;101927.00;;;;5033986;28;20238;-45
2024/01/20 01:58:09;;;;;;;4.63;4.23;;;13.40;48.30;14.50;101920.00;;;;5040124;28;20664;-46
2024/01/20 02:00:35;;;;;;;4.97;4.40;;;13.40;48.30;14.40;101920.00;;;;5039499;28;20179;-47
2024/01/20 02:03:01;;;;;;;5.00;4.50;;;13.30;48.80;14.40;101920.00;;;;5041185;28;20197;-48
2024/01/20 02:05:27;;;;;;;4.53;4.13;;;13.30;48.20;14.20;101923.00;;;;5043126;28;20226;-46
2024/01/20 02:07:53;;;;;;;4.97;4.43;;;13.30;48.30;14.40;101919.00;;;;5041478;28;20202;-47
2024/01/20 02:10:18;;;;;;;4.60;4.20;;;13.30;48.20;14.40;101908.00;;;;5039650;28;20253;-47
2024/01/20 02:12:45;;;;;;;4.73;4.27;;;13.30;48.80;14.30;101905.00;;;;5022238;28;20179;-46
2024/01/20 02:15:11;;;;;;;4.83;4.43;;;13.20;48.20;14.30;101928.00;;;;5039029;28;20784;-46
2024/01/20 02:17:36;;;;;;;5.10;4.60;;;13.20;48.10;14.30;101917.00;;;;5037492;28;20179;-46
2024/01/20 02:20:02;;;;;;;4.77;4.27;;;13.20;48.10;14.30;101927.00;;;;5022835;28;20182;-47
2024/01/20 02:22:28;;;;;;;4.47;4.07;;;13.20;48.20;14.20;101928.00;;;;5038115;28;20218;-46
2024/01/20 02:24:54;;;;;;;4.67;4.27;;;13.20;48.20;14.20;101929.00;;;;5039512;28;20203;-47
2024/01/20 02:27:20;;;;;;;4.20;3.90;;;13.10;48.00;14.20;101924.00;;;;5038318;28;20170;-47
2024/01/20 02:29:45;;;;;;;5.07;4.57;;;13.10;48.10;14.20;101929.00;;;;5043889;28;20597;-46
2024/01/20 02:32:11;;;;;;;4.73;4.33;;;13.00;48.00;14.20;101927.00;;;;5043962;28;20182;-46
2024/01/20 02:34:37;;;;;;;4.93;4.43;;;13.10;48.00;14.10;101924.00;;;;5042547;28;20175;-46
2024/01/20 02:37:07;;;;;;;4.90;4.40;;;13.10;48.00;14.10;101937.00;;;;5044963;28;20208;-45
2024/01/20 02:39:33;;;;;;;4.50;4.10;;;13.00;48.00;14.10;101939.00;;;;5042158;28;20267;-45
2024/01/20 02:41:58;;;;;;;4.47;4.07;;;13.00;48.10;14.10;101931.00;;;;5044521;28;20337;-45
2024/01/20 02:44:24;;;;;;;4.60;4.20;;;13.00;48.00;14.10;101925.00;;;;5036803;28;20193;-46
2024/01/20 02:46:52;;;;;;;4.77;4.37;;;13.00;48.00;14.00;101933.00;;;;5044104;28;20178;-46
2024/01/20 02:49:18;;;;;;;4.67;4.27;;;12.90;48.00;14.00;101934.00;;;;5042936;28;20181;-46
2024/01/20 02:51:44;;;;;;;4.77;4.37;;;13.00;48.20;14.00;101938.00;;;;5043374;28;20178;-46
2024/01/20 02:54:09;;;;;;;4.70;4.30;;;12.90;47.90;14.00;101932.00;;;;5043982;28;20180;-46
2024/01/20 02:56:35;;;;;;;4.57;4.17;;;12.90;48.00;14.00;101927.00;;;;5042280;28;20682;-46
2024/01/20 02:59:01;;;;;;;4.83;4.33;;;12.90;48.10;13.90;101915.00;;;;5044128;28;20189;-47
2024/01/20 03:01:27;;;;;;;5.00;4.50;;;13.00;48.10;13.90;101920.00;;;;5041706;28;20205;-46
2024/01/20 03:03:52;;;;;;;4.93;4.43;;;12.80;47.90;13.90;101930.00;;;;5044242;28;20179;-46
2024/01/20 03:06:18;;;;;;;4.90;4.40;;;12.80;48.00;13.90;101926.00;;;;5041834;28;20194;-45
2024/01/20 03:08:44;;;;;;;5.30;4.80;;;12.80;48.00;13.90;101927.00;;;;5042808;28;20554;-47
2024/01/20 03:11:09;;;;;;;5.00;4.50;;;12.80;48.20;13.80;101921.00;;;;5043476;28;20186;-50
2024/01/20 03:13:35;;;;;;;4.73;4.33;;;12.80;48.10;13.80;101927.00;;;;5040300;28;20240;-47
2024/01/20 03:16:01;;;;;;;4.63;4.23;;;12.80;48.10;13.80;101933.00;;;;5042146;28;20206;-46
2024/01/20 03:18:27;;;;;;;4.67;4.27;;;12.70;48.00;13.80;101940.00;;;;5039927;28;20602;-46
2024/01/20 03:20:52;;;;;;;4.77;4.37;;;12.70;48.10;13.80;101937.00;;;;5042552;28;20179;-46
2024/01/20 03:23:18;;;;;;;4.60;4.20;;;12.70;47.90;13.80;101935.00;;;;5042451;28;20190;-46
2024/01/20 03:25:44;;;;;;;5.00;4.50;;;12.70;48.00;13.70;101933.00;;;;5042331;28;20194;-46
2024/01/20 03:28:09;;;;;;;4.60;4.20;;;12.70;48.20;13.70;101931.00;;;;5040932;28;20179;-46
2024/01/20 03:30:35;;;;;;;5.17;4.47;;;12.60;47.90;13.60;101945.00;;;;5041230;28;20219;-46
2024/01/20 03:33:01;;;;;;;4.90;4.40;;;12.60;48.00;13.70;101934.00;;;;5040459;28;20178;-46
2024/01/20 03:35:26;;;;;;;4.93;4.53;;;12.60;48.20;13.70;101931.00;;;;5040753;28;20224;-45
2024/01/20 03:37:52;;;;;;;4.63;4.23;;;12.60;48.20;13.70;101932.00;;;;5043801;28;20174;-45
2024/01/20 03:40:18;;;;;;;4.97;4.57;;;12.60;48.20;13.60;101945.00;;;;5043811;28;20174;-47
2024/01/20 03:42:44;;;;;;;4.90;4.40;;;12.60;48.10;13.60;101949.00;;;;5044924;28;20213;-46
2024/01/20 03:45:09;;;;;;;4.77;4.30;;;12.50;48.00;13.60;101941.00;;;;5043904;28;20787;-46
2024/01/20 03:47:35;;;;;;;4.67;4.23;;;12.50;48.00;13.60;101941.00;;;;5036154;28;20186;-46
2024/01/20 03:50:03;;;;;;;4.90;4.50;;;12.50;48.00;13.60;101942.00;;;;5043812;28;20183;-46
2024/01/20 03:52:29;;;;;;;4.80;4.40;;;12.50;48.10;13.50;101943.00;;;;5041585;28;20560;-47
2024/01/20 03:54:55;;;;;;;4.77;4.27;;;12.50;48.10;13.50;101953.00;;;;5048945;28;20234;-45
2024/01/20 03:57:20;;;;;;;4.90;4.50;;;12.40;48.00;13.50;101952.00;;;;5041994;28;20194;-46
2024/01/20 03:59:46;;;;;;;5.23;4.57;;;12.40;48.00;13.50;101950.00;;;;5042786;28;20213;-45
2024/01/20 04:02:12;;;;;;;4.80;4.40;;;12.40;48.30;13.50;101948.00;;;;5044065;28;20212;-46
2024/01/20 04:04:38;;;;;;;5.77;4.50;;;12.50;48.80;13.50;101963.00;;;;5040925;28;20191;-45
2024/01/20 04:07:05;;;;;;;4.50;4.10;;;12.50;49.30;13.50;101960.00;;;;5042929;28;20189;-45
2024/01/20 04:09:31;;;;;;;5.00;4.60;;;12.40;49.00;13.50;101965.00;;;;5042036;28;20237;-45
2024/01/20 04:11:57;;;;;;;4.73;4.23;;;12.40;48.60;13.40;101975.00;;;;5044172;28;20272;-46
2024/01/20 04:14:22;;;;;;;5.10;4.60;;;12.40;48.50;13.40;101968.00;;;;5042100;28;20311;-45
2024/01/20 04:16:48;;;;;;;4.90;4.40;;;12.40;48.50;13.40;101962.00;;;;5043921;28;20732;-47
2024/01/20 04:19:14;;;;;;;4.27;3.97;;;12.30;48.30;13.40;101973.00;;;;5042343;28;20265;-46
2024/01/20 04:21:40;;;;;;;4.67;4.27;;;12.30;48.40;13.40;101971.00;;;;5042619;28;20270;-46
2024/01/20 04:24:05;;;;;;;5.03;4.43;;;12.30;48.30;13.30;101973.00;;;;5044053;28;20182;-46
2024/01/20 04:26:31;;;;;;;5.10;4.60;;;12.20;48.20;13.30;101974.00;;;;5040148;28;20557;-45
2024/01/20 04:28:57;;;;;;;4.63;4.20;;;12.20;48.20;13.30;101972.00;;;;5042958;28;20198;-46
2024/01/20 04:31:23;;;;;;;5.27;4.27;;;12.20;48.60;13.30;101979.00;;;;5042132;28;20178;-45
2024/01/20 04:33:48;;;;;;;4.43;4.03;;;12.30;48.90;13.30;101991.00;;;;5043762;28;20178;-45
2024/01/20 04:36:14;;;;;;;4.40;4.00;;;12.30;48.80;13.20;101993.00;;;;5043142;28;20228;-46
2024/01/20 04:38:40;;;;;;;4.60;4.20;;;12.30;48.70;13.20;101985.00;;;;5042495;28;20661;-47
2024/01/20 04:41:05;;;;;;;4.57;4.03;;;12.40;48.90;13.20;101981.00;;;;5043576;28;20206;-45
2024/01/20 04:43:31;;;;;;;4.50;4.10;;;12.40;49.00;13.20;101986.00;;;;5035950;28;20187;-44
2024/01/20 04:45:57;;;;;;;5.30;3.60;;;12.50;49.00;13.30;101989.00;;;;5043760;28;20198;-44
2024/01/20 04:48:23;;;;;;;4.63;3.80;;;12.60;48.90;13.30;101989.00;;;;5042220;28;20182;-45
2024/01/20 04:50:49;;;;;;;6.43;3.80;;;12.70;48.90;13.30;101989.00;;;;5043096;28;20178;-45
2024/01/20 04:53:14;;;;;;;6.23;3.60;;;12.80;48.90;13.40;101991.00;;;;5041656;28;20221;-46
2024/01/20 04:55:40;;;;;;;4.20;3.70;;;12.90;48.90;13.50;101994.00;;;;5041691;28;20708;-45
2024/01/20 04:58:06;;;;;;;3.87;3.47;;;13.00;49.40;13.50;101992.00;;;;5043733;28;20265;-45
2024/01/20 05:00:32;;;;;;;3.77;3.47;;;13.10;48.70;13.60;102001.00;;;;5041146;28;20767;-45
2024/01/20 05:02:57;;;;;;;3.67;3.27;;;13.20;48.60;13.70;101994.00;;;;5043563;28;20201;-45
2024/01/20 05:05:23;;;;;;;4.10;3.67;;;13.40;48.50;13.80;101992.00;;;;5041713;28;20205;-45
2024/01/20 05:07:49;;;;;;;3.40;3.10;;;13.50;48.50;13.90;101994.00;;;;5043395;28;20616;-46
2024/01/20 05:10:15;;;;;;;3.60;3.30;;;13.70;49.00;14.00;101996.00;;;;5042704;28;20660;-45
2024/01/20 05:12:40;;;;;;;3.70;3.40;;;13.90;49.20;14.10;102010.00;;;;5042119;28;20197;-45
2024/01/20 05:15:10;;;;;;;3.73;3.10;;;14.00;49.40;14.20;101993.00;;;;5043207;28;20206;-45
2024/01/20 05:17:37;;;;;;;4.07;3.10;;;14.10;49.20;14.30;101995.00;;;;5041394;28;20244;-45
2024/01/20 05:20:04;;;;;;;3.40;3.07;;;14.20;49.20;14.40;102005.00;;;;5043376;28;20178;-45
2024/01/20 05:22:30;;;;;;;4.30;3.00;;;14.40;49.20;14.50;102005.00;;;;5040801;28;20202;-47
2024/01/20 05:24:55;;;;;;;7.20;3.30;;;14.50;49.10;14.60;102005.00;;;;5038972;28;20368;-45
2024/01/20 05:27:21;;;;;;;3.23;2.90;;;14.50;49.00;14.70;102011.00;;;;5025425;28;20182;-46
2024/01/20 05:29:47;;;;;;;3.10;2.80;;;14.60;48.90;14.80;102016.00;;;;5039816;28;20178;-47
2024/01/20 05:32:16;;;;;;;5.73;3.00;;;14.60;48.90;14.80;102017.00;;;;5047738;28;20178;-47
2024/01/20 05:34:42;;;;;;;3.53;2.70;;;14.70;49.00;14.90;102015.00;;;;5041723;28;20253;-46
2024/01/20 05:37:08;;;;;;;3.30;2.57;;;14.70;48.80;14.90;102019.00;;;;5041369;28;20680;-46
2024/01/20 05:39:34;;;;;;;3.70;2.93;;;14.70;48.80;15.00;102032.00;;;;5040294;28;20238;-45
2024/01/20 05:42:00;;;;;;;2.80;2.60;;;14.80;48.90;15.00;102017.00;;;;5043107;28;20210;-46
2024/01/20 05:44:26;;;;;;;3.60;2.93;;;14.80;48.90;15.10;102026.00;;;;5042119;28;20217;-47
2024/01/20 05:46:52;;;;;;;3.07;2.80;;;14.80;48.90;15.10;102038.00;;;;5029189;28;20703;-46
2024/01/20 05:49:18;;;;;;;3.97;2.97;;;14.80;48.90;14.90;102035.00;;;;5042059;28;20178;-46
2024/01/20 05:51:44;;;;;;;4.33;2.90;;;14.80;49.00;15.20;102024.00;;;;5042856;28;20179;-46
2024/01/20 05:54:10;;;;;;;3.20;2.90;;;14.80;49.10;15.20;102032.00;;;;5044056;28;20174;-46
2024/01/20 05:56:35;;;;;;;2.93;2.63;;;14.80;49.20;15.20;102031.00;;;;5042147;28;20199;-46
2024/01/20 05:59:01;;;;;;;2.73;2.53;;;14.80;49.20;15.20;102034.00;;;;5031533;28;20206;-46
2024/01/20 06:01:27;;;;;;;3.10;2.80;;;14.80;49.40;15.20;101997.00;;;;5042375;28;20216;-46
2024/01/20 06:03:53;;;;;;;3.87;2.50;;;14.80;49.50;15.30;102026.00;;;;5045801;28;20571;-46
2024/01/20 06:06:19;;;;;;;2.80;2.60;;;14.80;49.60;15.30;102033.00;;;;5046663;28;20205;-46
2024/01/20 06:08:44;;;;;;;3.80;2.43;;;14.80;49.70;15.30;102029.00;;;;5042693;28;20767;-46
2024/01/20 06:11:10;;;;;;;3.70;2.70;;;14.90;50.00;15.30;102027.00;;;;5047960;28;20618;-47
2024/01/20 06:13:37;;;;;;;3.03;2.83;;;14.80;49.90;15.30;102033.00;;;;5045690;28;20179;-46
2024/01/20 06:16:05;;;;;;;3.83;2.70;;;14.80;49.90;15.30;102033.00;;;;5040353;28;20727;-46
2024/01/20 06:18:31;;;;;;;3.37;2.60;;;14.80;50.00;15.30;102031.00;;;;5044453;28;20182;-46
2024/01/20 06:20:59;;;;;;;3.87;2.57;;;14.80;50.20;15.30;102035.00;;;;5042661;28;20846;-47
2024/01/20 06:23:31;;;;;;;4.27;2.83;;;14.80;50.20;15.30;102035.00;;;;5041485;28;20730;-46
2024/01/20 06:25:56;;;;;;;4.67;2.70;;;14.80;50.20;15.30;102043.00;;;;5037436;28;20320;-46
2024/01/20 06:28:23;;;;;;;3.73;2.80;;;14.80;50.30;15.30;102049.00;;;;5045119;28;20668;-46
2024/01/20 06:30:51;;;;;;;3.13;2.80;;;14.80;50.30;15.30;102040.00;;;;5047397;28;20816;-46
2024/01/20 06:33:17;;;;;;;2.80;2.60;;;14.80;50.40;15.30;102047.00;;;;5046925;28;20192;-45
2024/01/20 06:35:43;;;;;;;2.77;2.57;;;14.80;50.40;15.40;102056.00;;;;5044820;28;20664;-46
2024/01/20 06:38:09;;;;;;;3.00;2.73;;;14.80;50.30;15.40;102061.00;;;;5047539;28;20186;-46
2024/01/20 06:40:34;;;;;;;3.33;2.90;;;14.80;50.30;15.40;102070.00;;;;5044766;28;20225;-45
2024/01/20 06:43:00;;;;;;;3.13;2.60;;;14.80;50.40;15.40;102060.00;;;;5043562;28;20198;-46
2024/01/20 06:45:30;;;;;;;2.97;2.67;;;14.80;50.30;15.40;102074.00;;;;5043583;28;20214;-46
2024/01/20 06:47:56;;;;;;;3.63;2.60;;;14.80;50.50;15.40;102063.00;;;;5036715;28;20174;-46
2024/01/20 06:50:22;;;;;;;3.03;2.50;;;14.80;50.50;15.40;102065.00;;;;5045340;28;20186;-46
2024/01/20 06:52:47;;;;;;;2.60;2.40;;;14.80;50.70;15.40;102061.00;;;;5046742;28;20175;-46
2024/01/20 06:55:13;;;;;;;2.80;2.60;;;14.80;50.70;15.40;102060.00;;;;5046794;28;20210;-45
2024/01/20 06:57:39;;;;;;;2.63;2.43;;;14.80;50.70;15.40;102058.00;;;;5047196;28;20183;-45
2024/01/20 07:00:08;;;;;;;2.77;2.57;;;14.80;50.70;15.40;102061.00;;;;5047568;28;20595;-46
2024/01/20 07:02:34;;;;;;;2.60;2.40;;;14.80;50.70;15.40;102060.00;;;;5044465;28;20187;-46
2024/01/20 07:05:00;;;;;;;3.00;2.70;;;14.80;50.80;15.40;102062.00;;;;5045627;28;20198;-46
2024/01/20 07:07:26;;;;;;;2.70;2.50;;;14.80;50.60;15.40;102074.00;;;;5039911;28;20175;-46
2024/01/20 07:09:51;;;;;;;2.77;2.57;;;14.80;50.70;15.40;102079.00;;;;5035439;28;20201;-46
2024/01/20 07:12:17;;;;;;;2.77;2.53;;;14.80;50.80;15.40;102072.00;;;;5043880;28;20187;-46
2024/01/20 07:14:43;;;;;;;2.70;2.50;;;14.80;50.70;15.40;102077.00;;;;5039066;28;20292;-45
2024/01/20 07:17:09;;;;;;;3.20;2.60;;;14.80;50.50;15.50;102074.00;;;;5042581;28;20248;-46
2024/01/20 07:19:35;;;;;;;2.90;2.70;;;14.90;50.70;15.40;102077.00;;;;5043145;28;20183;-46
2024/01/20 07:22:00;;;;;;;3.33;2.80;;;14.90;50.70;15.50;102082.00;;;;5051506;28;20591;-46
2024/01/20 07:24:29;;;;;;;2.90;2.70;;;14.90;50.60;15.50;102089.00;;;;5044721;28;20178;-46
2024/01/20 07:26:55;;;;;;;2.90;2.70;;;14.90;50.70;15.40;102090.00;;;;5043406;28;20615;-46
2024/01/20 07:29:20;;;;;;;2.57;2.37;;;14.80;50.70;15.40;102086.00;;;;5045501;28;20205;-46
2024/01/20 07:31:46;;;;;;;2.63;2.43;;;14.80;50.70;15.40;102098.00;;;;5045930;28;20287;-46
2024/01/20 07:34:12;;;;;;;2.80;2.60;;;14.80;50.70;15.40;102101.00;;;;5050955;28;20189;-47
2024/01/20 07:36:38;;;;;;;2.90;2.70;;;14.90;50.70;15.40;102105.00;;;;5046093;28;20211;-46
2024/01/20 07:39:06;;;;;;;2.80;2.60;;;14.80;50.70;15.20;102108.00;;;;5047271;28;20178;-46
2024/01/20 07:41:32;;;;;;;3.00;2.70;;;14.80;50.80;15.40;102117.00;;;;5043929;28;20294;-46
2024/01/20 07:43:58;;;;;;;3.00;2.80;;;14.90;50.80;15.40;102121.00;;;;5041446;28;20232;-46
2024/01/20 07:46:24;;;;;;;3.00;2.80;;;14.80;50.80;15.40;102122.00;;;;5043137;28;20676;-46
2024/01/20 07:48:49;;;;;;;2.80;2.60;;;14.80;51.00;15.40;102129.00;;;;5043065;28;20186;-46
2024/01/20 07:51:15;;;;;;;2.70;2.50;;;14.80;51.00;15.40;102132.00;;;;5042702;28;20202;-46
2024/01/20 07:53:41;;;;;;;2.97;2.77;;;14.80;51.00;15.40;102140.00;;;;5044961;28;20175;-46
2024/01/20 07:56:09;;;;;;;2.77;2.57;;;14.80;51.00;15.40;102125.00;;;;5032613;28;20210;-46
2024/01/20 07:58:35;;;;;;;2.83;2.63;;;14.80;51.10;15.40;102126.00;;;;5031564;28;20187;-46
2024/01/20 08:01:01;;;;;;;3.00;2.80;;;14.80;51.10;15.40;102132.00;;;;5037650;28;20185;-46
2024/01/20 08:03:26;;;;;;;2.73;2.53;;;14.80;51.00;15.40;102135.00;;;;5038883;28;20182;-46
2024/01/20 08:05:52;;;;;;;3.23;2.93;;;14.90;51.00;15.40;102131.00;;;;5025416;28;20289;-46
2024/01/20 08:08:18;;;;;;;3.10;2.50;;;14.90;51.00;15.40;102149.00;;;;5041451;28;20182;-46
2024/01/20 08:10:44;;;;;;;3.00;2.60;;;14.90;51.20;15.40;102144.00;;;;5040854;28;20182;-45
2024/01/20 08:13:09;;;;;;;2.60;2.40;;;14.90;51.10;15.40;102134.00;;;;5044321;28;20178;-46
2024/01/20 08:15:35;;;;;;;2.60;2.40;;;14.90;51.00;15.50;102135.00;;;;5035445;28;20618;-46
2024/01/20 08:18:01;;;;;;;3.07;2.87;;;15.00;51.30;15.50;102136.00;;;;5043039;28;20809;-45
2024/01/20 08:20:27;;;;;;;4.67;2.70;;;15.10;51.40;15.50;102132.00;;;;5041383;28;20181;-46
2024/01/20 08:22:53;;;;;;;3.63;2.70;;;15.20;51.50;15.60;102149.00;;;;5045006;28;20200;-46
2024/01/20 08:25:18;;;;;;;3.60;2.93;;;15.20;51.20;15.60;102150.00;;;;5042078;28;20198;-46
2024/01/20 08:27:44;;;;;;;3.10;2.90;;;15.40;51.20;15.70;102154.00;;;;5041309;28;20186;-46
2024/01/20 08:30:11;;;;;;;3.23;2.57;;;15.50;50.90;15.80;102148.00;;;;5043202;28;20649;-46
2024/01/20 08:32:37;;;;;;;3.13;2.83;;;15.60;50.50;15.90;102145.00;;;;5032862;28;20831;-47
2024/01/20 08:35:03;;;;;;;3.47;2.70;;;15.80;50.30;16.00;102149.00;;;;5043820;28;20872;-48
2024/01/20 08:37:29;;;;;;;2.83;2.60;;;15.90;50.00;16.00;102154.00;;;;5045812;28;20186;-54
2024/01/20 08:39:54;;;;;;;2.87;2.63;;;16.00;49.70;16.10;102150.00;;;;5044158;28;20178;-46
2024/01/20 08:42:20;;;;;;;4.67;3.03;;;16.10;49.60;16.20;102137.00;;;;5041659;28;20361;-46
2024/01/20 08:44:46;;;;;;;4.27;3.20;;;16.30;49.40;16.30;102146.00;;;;5036530;28;20473;-46
2024/01/20 08:47:12;;;;;;;2.77;2.57;;;16.30;49.40;16.40;102145.00;;;;5042866;28;20181;-46
2024/01/20 08:49:37;;;;;;;3.27;2.97;;;16.30;49.20;16.40;102148.00;;;;5040974;28;20202;-46
2024/01/20 08:52:03;;;;;;;3.13;2.83;;;16.40;49.20;16.50;102158.00;;;;5041145;28;20182;-46
2024/01/20 08:54:29;;;;;;;3.30;2.63;;;16.50;49.10;16.60;102154.00;;;;5040307;28;20715;-45
2024/01/20 08:56:55;;;;;;;7.60;2.80;;;16.60;49.20;16.70;102153.00;;;;5043032;28;20182;-46
2024/01/20 08:59:21;;;;;;;3.07;2.77;;;16.60;49.00;16.70;102155.00;;;;5041172;28;20193;-46
2024/01/20 09:01:46;;;;;;;3.10;2.80;;;16.70;49.00;16.80;102165.00;;;;5041741;28;20221;-46
2024/01/20 09:04:13;;;;;;;3.20;2.90;;;16.80;48.90;16.80;102148.00;;;;5042188;28;20237;-47
2024/01/20 09:06:39;;;;;;;2.80;2.60;;;16.80;48.80;16.90;102150.00;;;;5040996;28;20283;-48
2024/01/20 09:09:05;;;;;;;3.00;2.80;;;16.80;48.90;16.90;102153.00;;;;5041010;28;20541;-46
2024/01/20 09:11:30;;;;;;;2.90;2.70;;;16.90;49.00;17.00;102161.00;;;;5034142;28;20261;-46
2024/01/20 09:13:57;;;;;;;3.73;2.73;;;17.00;48.90;17.00;102155.00;;;;5043487;28;20180;-46
2024/01/20 09:16:23;;;;;;;3.07;2.80;;;16.90;48.90;17.10;102163.00;;;;5040874;28;20199;-46
2024/01/20 09:18:48;;;;;;;4.17;2.80;;;16.90;49.40;17.10;102172.00;;;;5041743;28;20175;-45
2024/01/20 09:21:14;;;;;;;4.00;2.80;;;17.00;50.30;17.10;102167.00;;;;5042425;28;20195;-46
2024/01/20 09:23:40;;;;;;;6.40;3.13;;;17.10;50.80;17.20;102164.00;;;;5032699;28;20821;-47
2024/01/20 09:26:06;;;;;;;6.10;2.87;;;17.10;53.50;17.30;102165.00;;;;5022511;28;20209;-47
2024/01/20 09:28:32;;;;;;;7.77;3.20;;;17.20;53.50;17.30;102171.00;;;;5042550;28;20184;-47
2024/01/20 09:30:57;;;;;;;7.00;3.40;;;17.20;53.80;17.40;102170.00;;;;5033189;28;20186;-46
2024/01/20 09:33:23;;;;;;;3.27;2.80;;;17.20;53.80;17.40;102170.00;;;;5035797;28;20184;-47
2024/01/20 09:35:49;;;;;;;5.70;3.00;;;17.20;54.10;17.40;102172.00;;;;5041777;28;20198;-47
2024/01/20 09:38:14;;;;;;;8.20;3.73;;;17.20;53.70;17.20;102183.00;;;;5040621;28;20210;-47
2024/01/20 09:40:40;;;;;;;6.83;4.00;;;17.20;53.90;17.50;102169.00;;;;5031775;28;20221;-46
2024/01/20 09:43:06;;;;;;;12.47;4.07;;;17.20;53.90;17.50;102175.00;;;;5035129;28;20275;-46
2024/01/20 09:45:34;;;;;;;7.40;4.10;;;17.20;53.70;17.50;102166.00;;;;5033571;28;20202;-47
2024/01/20 09:48:00;;;;;;;7.77;4.13;;;17.20;53.70;17.50;102177.00;;;;5020903;28;20182;-46
2024/01/20 09:50:26;;;;;;;7.27;4.30;;;17.20;53.70;17.50;102175.00;;;;5043228;28;20166;-46
2024/01/20 09:53:03;;;;;;;9.10;3.87;;;17.20;53.70;17.50;102171.00;;;;5044174;28;20182;-47
2024/01/20 09:55:28;;;;;;;6.37;3.90;;;17.10;53.60;17.50;102179.00;;;;5042820;28;20493;-46
2024/01/20 09:57:55;;;;;;;9.13;4.20;;;17.10;53.70;17.50;102170.00;;;;5045241;28;20203;-46
2024/01/20 10:00:22;;;;;;;6.73;4.03;;;17.10;53.90;17.50;102178.00;;;;5043936;28;20436;-47
2024/01/20 10:02:48;;;;;;;6.17;3.63;;;17.00;53.80;17.40;102176.00;;;;5033625;28;20259;-47
2024/01/20 10:05:14;;;;;;;5.13;3.80;;;16.90;53.70;17.40;102182.00;;;;5023195;28;20201;-47
2024/01/20 10:07:40;;;;;;;6.93;3.90;;;16.90;53.90;17.40;102179.00;;;;5037232;28;20180;-47
2024/01/20 10:10:07;;;;;;;6.33;3.63;;;16.90;53.90;17.40;102183.00;;;;5041839;28;20193;-46
2024/01/20 10:12:33;;;;;;;5.83;3.63;;;16.80;54.00;17.30;102184.00;;;;5039215;28;20200;-46
2024/01/20 10:14:58;;;;;;;6.47;3.67;;;16.70;54.00;17.30;102195.00;;;;5042097;28;20211;-54
2024/01/20 10:17:24;;;;;;;6.23;3.53;;;16.70;54.00;17.30;102191.00;;;;5040764;28;20186;-47
2024/01/20 10:19:50;;;;;;;6.00;3.60;;;16.70;54.00;17.20;102199.00;;;;5035938;28;20321;-46
2024/01/20 10:22:16;;;;;;;6.07;3.43;;;16.60;53.90;17.20;102195.00;;;;5041757;28;20201;-46
2024/01/20 10:24:49;;;;;;;5.73;3.70;;;16.60;53.90;17.20;102196.00;;;;5040092;28;20183;-46
2024/01/20 10:27:16;;;;;;;6.97;3.60;;;16.60;53.90;17.10;102192.00;;;;5039116;28;20162;-45
2024/01/20 10:29:42;;;;;;;5.23;3.80;;;16.50;53.90;17.10;102181.00;;;;5041035;28;20288;-46
2024/01/20 10:32:08;;;;;;;4.53;3.47;;;16.50;53.90;17.10;102192.00;;;;5042001;28;20170;-46
2024/01/20 10:34:34;;;;;;;5.13;3.40;;;16.50;54.00;17.00;102189.00;;;;5039308;28;20187;-47
2024/01/20 10:36:59;;;;;;;4.93;3.70;;;16.40;53.90;17.00;102163.00;;;;5042159;28;20206;-46
2024/01/20 10:39:25;;;;;;;6.33;3.40;;;16.40;53.90;17.00;102178.00;;;;5022387;28;20183;-46
2024/01/20 10:41:51;;;;;;;5.50;3.60;;;16.40;54.00;16.90;102171.00;;;;5040484;28;20205;-46